sensor_id;sensor_type;location;lat;lon;timestamp;temperature;humidity
70421;SHT31;57848;51.938;15.520;2022-12-17T00:00:58;-3.99;89.96
70421;SHT31;57848;51.938;15.520;2022-12-17T00:03:42;-4.07;90.18
70421;SHT31;57848;51.938;15.520;2022-12-17T00:06:26;-4.15;90.37
70421;SHT31;57848;51.938;15.520;2022-12-17T00:09:10;-4.09;90.25
70421;SHT31;57848;51.938;15.520;2022-12-17T00:11:53;-4.09;90.31
70421;SHT31;57848;51.938;15.520;2022-12-17T00:14:37;-4.12;90.56
70421;SHT31;57848;51.938;15.520;2022-12-17T00:17:21;-4.12;90.49
70421;SHT31;57848;51.938;15.520;2022-12-17T00:20:05;-4.04;90.13
70421;SHT31;57848;51.938;15.520;2022-12-17T00:22:57;-4.05;90.29
70421;SHT31;57848;51.938;15.520;2022-12-17T00:25:41;-4.05;90.19
70421;SHT31;57848;51.938;15.520;2022-12-17T00:28:25;-3.98;90.01
70421;SHT31;57848;51.938;15.520;2022-12-17T00:31:09;-4.08;90.14
70421;SHT31;57848;51.938;15.520;2022-12-17T00:33:53;-4.04;90.43
70421;SHT31;57848;51.938;15.520;2022-12-17T00:36:37;-3.99;90.17
70421;SHT31;57848;51.938;15.520;2022-12-17T00:39:21;-4.12;90.04
70421;SHT31;57848;51.938;15.520;2022-12-17T00:42:05;-4.07;90.33
70421;SHT31;57848;51.938;15.520;2022-12-17T00:44:49;-4.04;90.28
70421;SHT31;57848;51.938;15.520;2022-12-17T00:47:33;-3.98;90.09
70421;SHT31;57848;51.938;15.520;2022-12-17T00:50:17;-3.95;89.96
70421;SHT31;57848;51.938;15.520;2022-12-17T00:53:05;-4.08;90.21
70421;SHT31;57848;51.938;15.520;2022-12-17T00:55:49;-4.05;90.19
70421;SHT31;57848;51.938;15.520;2022-12-17T00:58:34;-4.09;90.07
70421;SHT31;57848;51.938;15.520;2022-12-17T01:01:18;-4.04;90.03
70421;SHT31;57848;51.938;15.520;2022-12-17T01:04:02;-3.99;89.83
70421;SHT31;57848;51.938;15.520;2022-12-17T01:06:46;-4.09;90.06
70421;SHT31;57848;51.938;15.520;2022-12-17T01:09:30;-4.01;90.07
70421;SHT31;57848;51.938;15.520;2022-12-17T01:12:14;-4.19;90.69
70421;SHT31;57848;51.938;15.520;2022-12-17T01:15:18;-4.12;90.36
70421;SHT31;57848;51.938;15.520;2022-12-17T01:18:02;-4.05;90.38
70421;SHT31;57848;51.938;15.520;2022-12-17T01:20:46;-4.15;90.51
70421;SHT31;57848;51.938;15.520;2022-12-17T01:23:30;-4.08;90.53
70421;SHT31;57848;51.938;15.520;2022-12-17T01:26:14;-4.14;90.47
70421;SHT31;57848;51.938;15.520;2022-12-17T01:28:58;-4.02;90.17
70421;SHT31;57848;51.938;15.520;2022-12-17T01:31:42;-4.05;90.23
70421;SHT31;57848;51.938;15.520;2022-12-17T01:34:26;-4.17;90.50
70421;SHT31;57848;51.938;15.520;2022-12-17T01:37:10;-4.02;90.22
70421;SHT31;57848;51.938;15.520;2022-12-17T01:39:54;-4.08;89.95
70421;SHT31;57848;51.938;15.520;2022-12-17T01:42:43;-4.07;89.99
70421;SHT31;57848;51.938;15.520;2022-12-17T01:45:35;-4.18;90.20
70421;SHT31;57848;51.938;15.520;2022-12-17T01:48:24;-4.02;90.23
70421;SHT31;57848;51.938;15.520;2022-12-17T01:51:10;-4.04;89.98
70421;SHT31;57848;51.938;15.520;2022-12-17T01:53:54;-4.12;90.08
70421;SHT31;57848;51.938;15.520;2022-12-17T01:56:41;-4.11;90.22
70421;SHT31;57848;51.938;15.520;2022-12-17T02:00:06;-4.12;90.45
70421;SHT31;57848;51.938;15.520;2022-12-17T02:02:51;-4.07;90.11
70421;SHT31;57848;51.938;15.520;2022-12-17T02:09:06;-4.07;90.41
70421;SHT31;57848;51.938;15.520;2022-12-17T02:15:14;-4.05;90.33
70421;SHT31;57848;51.938;15.520;2022-12-17T02:18:05;-4.04;90.14
70421;SHT31;57848;51.938;15.520;2022-12-17T02:20:52;-4.04;90.29
70421;SHT31;57848;51.938;15.520;2022-12-17T02:23:44;-4.02;90.12
70421;SHT31;57848;51.938;15.520;2022-12-17T02:26:37;-4.08;90.26
70421;SHT31;57848;51.938;15.520;2022-12-17T02:29:24;-3.98;90.13
70421;SHT31;57848;51.938;15.520;2022-12-17T02:32:11;-3.91;90.02
70421;SHT31;57848;51.938;15.520;2022-12-17T02:34:59;-3.93;90.04
70421;SHT31;57848;51.938;15.520;2022-12-17T02:37:48;-3.99;90.01
70421;SHT31;57848;51.938;15.520;2022-12-17T02:40:35;-3.93;89.80
70421;SHT31;57848;51.938;15.520;2022-12-17T02:43:20;-4.04;90.17
70421;SHT31;57848;51.938;15.520;2022-12-17T02:46:06;-3.98;90.10
70421;SHT31;57848;51.938;15.520;2022-12-17T02:48:50;-3.98;89.91
70421;SHT31;57848;51.938;15.520;2022-12-17T02:51:38;-4.04;89.97
70421;SHT31;57848;51.938;15.520;2022-12-17T02:54:22;-4.12;90.54
70421;SHT31;57848;51.938;15.520;2022-12-17T02:57:06;-4.08;90.29
70421;SHT31;57848;51.938;15.520;2022-12-17T02:59:50;-4.12;90.45
70421;SHT31;57848;51.938;15.520;2022-12-17T03:02:34;-4.15;90.52
70421;SHT31;57848;51.938;15.520;2022-12-17T03:05:22;-4.15;90.55
70421;SHT31;57848;51.938;15.520;2022-12-17T03:08:06;-4.12;90.15
70421;SHT31;57848;51.938;15.520;2022-12-17T03:10:50;-4.14;90.43
70421;SHT31;57848;51.938;15.520;2022-12-17T03:13:34;-4.21;90.66
70421;SHT31;57848;51.938;15.520;2022-12-17T03:16:18;-4.21;90.68
70421;SHT31;57848;51.938;15.520;2022-12-17T03:19:02;-4.22;90.93
70421;SHT31;57848;51.938;15.520;2022-12-17T03:21:46;-4.17;90.82
70421;SHT31;57848;51.938;15.520;2022-12-17T03:24:31;-4.19;90.79
70421;SHT31;57848;51.938;15.520;2022-12-17T03:27:15;-4.11;90.84
70421;SHT31;57848;51.938;15.520;2022-12-17T03:29:59;-4.12;90.91
70421;SHT31;57848;51.938;15.520;2022-12-17T03:32:43;-4.14;90.83
70421;SHT31;57848;51.938;15.520;2022-12-17T03:35:27;-4.22;91.10
70421;SHT31;57848;51.938;15.520;2022-12-17T03:38:11;-4.18;90.97
70421;SHT31;57848;51.938;15.520;2022-12-17T03:40:56;-4.14;91.01
70421;SHT31;57848;51.938;15.520;2022-12-17T03:43:40;-4.01;90.69
70421;SHT31;57848;51.938;15.520;2022-12-17T03:46:24;-4.11;90.52
70421;SHT31;57848;51.938;15.520;2022-12-17T03:49:08;-4.02;90.68
70421;SHT31;57848;51.938;15.520;2022-12-17T03:51:53;-4.05;90.74
70421;SHT31;57848;51.938;15.520;2022-12-17T03:54:37;-3.99;90.60
70421;SHT31;57848;51.938;15.520;2022-12-17T03:57:21;-4.05;90.72
70421;SHT31;57848;51.938;15.520;2022-12-17T04:00:06;-4.01;90.67
70421;SHT31;57848;51.938;15.520;2022-12-17T04:02:50;-4.02;90.74
70421;SHT31;57848;51.938;15.520;2022-12-17T04:05:34;-4.08;90.93
70421;SHT31;57848;51.938;15.520;2022-12-17T04:08:17;-4.02;90.81
70421;SHT31;57848;51.938;15.520;2022-12-17T04:11:01;-4.12;91.09
70421;SHT31;57848;51.938;15.520;2022-12-17T04:13:46;-4.04;90.95
70421;SHT31;57848;51.938;15.520;2022-12-17T04:16:29;-3.93;90.80
70421;SHT31;57848;51.938;15.520;2022-12-17T04:19:13;-3.98;90.97
70421;SHT31;57848;51.938;15.520;2022-12-17T04:21:57;-3.91;90.71
70421;SHT31;57848;51.938;15.520;2022-12-17T04:24:41;-3.87;90.37
70421;SHT31;57848;51.938;15.520;2022-12-17T04:27:25;-3.88;90.33
70421;SHT31;57848;51.938;15.520;2022-12-17T04:30:09;-3.99;90.57
70421;SHT31;57848;51.938;15.520;2022-12-17T04:32:53;-3.87;90.54
70421;SHT31;57848;51.938;15.520;2022-12-17T04:35:37;-3.84;90.55
70421;SHT31;57848;51.938;15.520;2022-12-17T04:38:21;-3.84;90.74
70421;SHT31;57848;51.938;15.520;2022-12-17T04:41:04;-3.86;90.56
70421;SHT31;57848;51.938;15.520;2022-12-17T04:43:49;-3.77;90.66
70421;SHT31;57848;51.938;15.520;2022-12-17T04:46:33;-3.71;90.31
70421;SHT31;57848;51.938;15.520;2022-12-17T04:49:17;-3.71;90.28
70421;SHT31;57848;51.938;15.520;2022-12-17T04:52:01;-3.81;90.42
70421;SHT31;57848;51.938;15.520;2022-12-17T04:54:45;-3.71;90.38
70421;SHT31;57848;51.938;15.520;2022-12-17T04:57:28;-3.74;90.24
70421;SHT31;57848;51.938;15.520;2022-12-17T05:00:13;-3.80;90.37
70421;SHT31;57848;51.938;15.520;2022-12-17T05:03:10;-3.87;90.64
70421;SHT31;57848;51.938;15.520;2022-12-17T05:05:55;-3.84;90.79
70421;SHT31;57848;51.938;15.520;2022-12-17T05:08:39;-3.76;90.95
70421;SHT31;57848;51.938;15.520;2022-12-17T05:11:24;-3.77;90.62
70421;SHT31;57848;51.938;15.520;2022-12-17T05:14:08;-3.68;90.61
70421;SHT31;57848;51.938;15.520;2022-12-17T05:16:52;-3.62;90.52
70421;SHT31;57848;51.938;15.520;2022-12-17T05:19:36;-3.73;90.58
70421;SHT31;57848;51.938;15.520;2022-12-17T05:22:19;-3.74;90.65
70421;SHT31;57848;51.938;15.520;2022-12-17T05:25:04;-3.77;90.65
70421;SHT31;57848;51.938;15.520;2022-12-17T05:27:48;-3.78;90.85
70421;SHT31;57848;51.938;15.520;2022-12-17T05:30:32;-3.77;90.84
70421;SHT31;57848;51.938;15.520;2022-12-17T05:33:16;-3.83;91.02
70421;SHT31;57848;51.938;15.520;2022-12-17T05:36:00;-3.77;90.96
70421;SHT31;57848;51.938;15.520;2022-12-17T05:38:46;-3.88;91.18
70421;SHT31;57848;51.938;15.520;2022-12-17T05:41:30;-3.91;91.07
70421;SHT31;57848;51.938;15.520;2022-12-17T05:44:14;-4.07;91.64
70421;SHT31;57848;51.938;15.520;2022-12-17T05:46:58;-4.08;91.66
70421;SHT31;57848;51.938;15.520;2022-12-17T05:49:42;-3.80;91.27
70421;SHT31;57848;51.938;15.520;2022-12-17T05:52:26;-3.77;90.85
70421;SHT31;57848;51.938;15.520;2022-12-17T05:55:10;-3.70;90.48
70421;SHT31;57848;51.938;15.520;2022-12-17T05:58:05;-3.74;90.46
70421;SHT31;57848;51.938;15.520;2022-12-17T06:00:55;-3.73;90.97
70421;SHT31;57848;51.938;15.520;2022-12-17T06:03:39;-3.73;90.63
70421;SHT31;57848;51.938;15.520;2022-12-17T06:06:23;-3.80;90.76
70421;SHT31;57848;51.938;15.520;2022-12-17T06:09:07;-3.94;90.89
70421;SHT31;57848;51.938;15.520;2022-12-17T06:11:51;-3.81;91.01
70421;SHT31;57848;51.938;15.520;2022-12-17T06:14:34;-3.81;90.86
70421;SHT31;57848;51.938;15.520;2022-12-17T06:17:18;-3.80;90.80
70421;SHT31;57848;51.938;15.520;2022-12-17T06:20:02;-3.87;90.89
70421;SHT31;57848;51.938;15.520;2022-12-17T06:22:46;-3.80;90.79
70421;SHT31;57848;51.938;15.520;2022-12-17T06:25:30;-3.73;90.76
70421;SHT31;57848;51.938;15.520;2022-12-17T06:28:32;-3.70;90.60
70421;SHT31;57848;51.938;15.520;2022-12-17T06:31:15;-3.71;90.40
70421;SHT31;57848;51.938;15.520;2022-12-17T06:34:00;-3.76;90.33
70421;SHT31;57848;51.938;15.520;2022-12-17T06:36:44;-3.74;90.49
70421;SHT31;57848;51.938;15.520;2022-12-17T06:39:28;-3.77;90.55
70421;SHT31;57848;51.938;15.520;2022-12-17T06:42:12;-3.78;90.85
70421;SHT31;57848;51.938;15.520;2022-12-17T06:44:56;-3.88;91.10
70421;SHT31;57848;51.938;15.520;2022-12-17T06:47:40;-3.76;90.79
70421;SHT31;57848;51.938;15.520;2022-12-17T06:50:23;-3.76;90.60
70421;SHT31;57848;51.938;15.520;2022-12-17T06:53:08;-3.80;90.73
70421;SHT31;57848;51.938;15.520;2022-12-17T06:55:56;-3.84;90.99
70421;SHT31;57848;51.938;15.520;2022-12-17T06:58:40;-3.74;90.90
70421;SHT31;57848;51.938;15.520;2022-12-17T07:01:25;-3.81;90.99
70421;SHT31;57848;51.938;15.520;2022-12-17T07:04:09;-3.73;90.76
70421;SHT31;57848;51.938;15.520;2022-12-17T07:06:53;-3.86;90.75
70421;SHT31;57848;51.938;15.520;2022-12-17T07:09:37;-3.86;91.22
70421;SHT31;57848;51.938;15.520;2022-12-17T07:12:37;-3.91;91.25
70421;SHT31;57848;51.938;15.520;2022-12-17T07:15:21;-3.77;91.16
70421;SHT31;57848;51.938;15.520;2022-12-17T07:18:05;-3.88;91.05
70421;SHT31;57848;51.938;15.520;2022-12-17T07:20:51;-3.84;91.20
70421;SHT31;57848;51.938;15.520;2022-12-17T07:23:35;-3.90;91.47
70421;SHT31;57848;51.938;15.520;2022-12-17T07:26:19;-3.86;91.50
70421;SHT31;57848;51.938;15.520;2022-12-17T07:29:03;-3.84;91.34
70421;SHT31;57848;51.938;15.520;2022-12-17T07:31:47;-3.74;91.02
70421;SHT31;57848;51.938;15.520;2022-12-17T07:34:31;-3.74;90.84
70421;SHT31;57848;51.938;15.520;2022-12-17T07:37:15;-3.74;90.87
70421;SHT31;57848;51.938;15.520;2022-12-17T07:39:58;-3.71;90.37
70421;SHT31;57848;51.938;15.520;2022-12-17T07:42:42;-3.76;90.47
70421;SHT31;57848;51.938;15.520;2022-12-17T07:45:26;-3.74;90.65
70421;SHT31;57848;51.938;15.520;2022-12-17T07:48:10;-3.76;90.65
70421;SHT31;57848;51.938;15.520;2022-12-17T07:50:54;-3.77;90.38
70421;SHT31;57848;51.938;15.520;2022-12-17T07:53:39;-3.70;90.56
70421;SHT31;57848;51.938;15.520;2022-12-17T07:56:22;-3.77;90.55
70421;SHT31;57848;51.938;15.520;2022-12-17T07:59:07;-3.86;90.70
70421;SHT31;57848;51.938;15.520;2022-12-17T08:01:50;-3.80;90.09
70421;SHT31;57848;51.938;15.520;2022-12-17T08:04:35;-3.77;90.36
70421;SHT31;57848;51.938;15.520;2022-12-17T08:07:18;-3.76;90.36
70421;SHT31;57848;51.938;15.520;2022-12-17T08:10:03;-3.91;90.71
70421;SHT31;57848;51.938;15.520;2022-12-17T08:12:58;-3.87;90.55
70421;SHT31;57848;51.938;15.520;2022-12-17T08:15:42;-3.76;90.35
70421;SHT31;57848;51.938;15.520;2022-12-17T08:18:27;-3.88;90.30
70421;SHT31;57848;51.938;15.520;2022-12-17T08:21:11;-3.94;90.59
70421;SHT31;57848;51.938;15.520;2022-12-17T08:23:55;-3.90;90.49
70421;SHT31;57848;51.938;15.520;2022-12-17T08:26:39;-3.90;90.10
70421;SHT31;57848;51.938;15.520;2022-12-17T08:29:23;-3.81;89.82
70421;SHT31;57848;51.938;15.520;2022-12-17T08:32:07;-3.77;89.58
70421;SHT31;57848;51.938;15.520;2022-12-17T08:34:51;-3.80;89.42
70421;SHT31;57848;51.938;15.520;2022-12-17T08:37:35;-3.80;89.33
70421;SHT31;57848;51.938;15.520;2022-12-17T08:40:19;-3.98;89.62
70421;SHT31;57848;51.938;15.520;2022-12-17T08:43:03;-3.87;89.14
70421;SHT31;57848;51.938;15.520;2022-12-17T08:45:49;-3.84;89.07
70421;SHT31;57848;51.938;15.520;2022-12-17T08:48:33;-3.91;89.34
70421;SHT31;57848;51.938;15.520;2022-12-17T08:51:18;-3.90;88.87
70421;SHT31;57848;51.938;15.520;2022-12-17T08:54:02;-3.91;88.94
70421;SHT31;57848;51.938;15.520;2022-12-17T08:56:46;-3.95;89.23
70421;SHT31;57848;51.938;15.520;2022-12-17T08:59:30;-3.91;89.10
70421;SHT31;57848;51.938;15.520;2022-12-17T09:02:14;-3.84;88.85
70421;SHT31;57848;51.938;15.520;2022-12-17T09:04:58;-3.84;88.92
70421;SHT31;57848;51.938;15.520;2022-12-17T09:07:46;-3.81;88.73
70421;SHT31;57848;51.938;15.520;2022-12-17T09:10:30;-3.78;88.79
70421;SHT31;57848;51.938;15.520;2022-12-17T09:13:13;-3.77;88.82
70421;SHT31;57848;51.938;15.520;2022-12-17T09:15:57;-3.84;89.02
70421;SHT31;57848;51.938;15.520;2022-12-17T09:18:42;-3.78;88.50
70421;SHT31;57848;51.938;15.520;2022-12-17T09:21:30;-3.78;88.20
70421;SHT31;57848;51.938;15.520;2022-12-17T09:24:15;-3.88;88.13
70421;SHT31;57848;51.938;15.520;2022-12-17T09:26:59;-3.76;88.20
70421;SHT31;57848;51.938;15.520;2022-12-17T09:29:43;-3.80;88.29
70421;SHT31;57848;51.938;15.520;2022-12-17T09:32:27;-3.77;88.21
70421;SHT31;57848;51.938;15.520;2022-12-17T09:35:13;-3.73;87.79
70421;SHT31;57848;51.938;15.520;2022-12-17T09:37:56;-3.68;87.71
70421;SHT31;57848;51.938;15.520;2022-12-17T09:40:45;-3.84;87.92
70421;SHT31;57848;51.938;15.520;2022-12-17T09:43:46;-3.84;88.06
70421;SHT31;57848;51.938;15.520;2022-12-17T09:47:00;-3.86;88.17
70421;SHT31;57848;51.938;15.520;2022-12-17T09:49:45;-3.73;88.10
70421;SHT31;57848;51.938;15.520;2022-12-17T09:52:35;-3.73;88.00
70421;SHT31;57848;51.938;15.520;2022-12-17T09:55:30;-3.80;88.30
70421;SHT31;57848;51.938;15.520;2022-12-17T09:58:37;-3.77;87.80
70421;SHT31;57848;51.938;15.520;2022-12-17T10:01:29;-3.80;87.96
70421;SHT31;57848;51.938;15.520;2022-12-17T10:04:17;-3.76;87.97
70421;SHT31;57848;51.938;15.520;2022-12-17T10:07:10;-3.71;87.97
70421;SHT31;57848;51.938;15.520;2022-12-17T10:09:56;-3.83;88.01
70421;SHT31;57848;51.938;15.520;2022-12-17T10:12:42;-3.74;88.07
70421;SHT31;57848;51.938;15.520;2022-12-17T10:15:25;-3.68;87.74
70421;SHT31;57848;51.938;15.520;2022-12-17T10:18:10;-3.74;87.88
70421;SHT31;57848;51.938;15.520;2022-12-17T10:21:00;-3.87;88.30
70421;SHT31;57848;51.938;15.520;2022-12-17T10:23:44;-3.74;88.11
70421;SHT31;57848;51.938;15.520;2022-12-17T10:26:31;-3.88;88.11
70421;SHT31;57848;51.938;15.520;2022-12-17T10:29:23;-3.90;87.62
70421;SHT31;57848;51.938;15.520;2022-12-17T10:32:19;-3.80;87.20
70421;SHT31;57848;51.938;15.520;2022-12-17T10:38:28;-3.80;87.68
70421;SHT31;57848;51.938;15.520;2022-12-17T10:41:29;-3.93;87.74
70421;SHT31;57848;51.938;15.520;2022-12-17T10:44:38;-3.83;87.74
70421;SHT31;57848;51.938;15.520;2022-12-17T10:47:24;-3.81;87.94
70421;SHT31;57848;51.938;15.520;2022-12-17T10:50:12;-3.88;87.69
70421;SHT31;57848;51.938;15.520;2022-12-17T10:52:57;-3.93;88.41
70421;SHT31;57848;51.938;15.520;2022-12-17T10:55:48;-3.97;88.42
70421;SHT31;57848;51.938;15.520;2022-12-17T10:58:33;-3.93;88.01
70421;SHT31;57848;51.938;15.520;2022-12-17T11:01:20;-3.90;88.09
70421;SHT31;57848;51.938;15.520;2022-12-17T11:07:09;-3.91;87.38
70421;SHT31;57848;51.938;15.520;2022-12-17T11:09:56;-3.99;87.89
70421;SHT31;57848;51.938;15.520;2022-12-17T11:13:06;-4.07;87.27
70421;SHT31;57848;51.938;15.520;2022-12-17T11:15:52;-4.02;87.22
70421;SHT31;57848;51.938;15.520;2022-12-17T11:18:57;-4.04;87.59
70421;SHT31;57848;51.938;15.520;2022-12-17T11:21:45;-4.11;88.05
70421;SHT31;57848;51.938;15.520;2022-12-17T11:24:34;-4.01;88.03
70421;SHT31;57848;51.938;15.520;2022-12-17T11:27:26;-3.99;88.00
70421;SHT31;57848;51.938;15.520;2022-12-17T11:30:14;-4.05;87.73
70421;SHT31;57848;51.938;15.520;2022-12-17T11:33:21;-4.01;87.39
70421;SHT31;57848;51.938;15.520;2022-12-17T11:42:38;-4.19;87.12
70421;SHT31;57848;51.938;15.520;2022-12-17T11:45:33;-4.11;87.83
70421;SHT31;57848;51.938;15.520;2022-12-17T11:48:47;-4.07;87.10
70421;SHT31;57848;51.938;15.520;2022-12-17T11:51:41;-4.26;87.33
70421;SHT31;57848;51.938;15.520;2022-12-17T11:54:56;-4.26;87.27
70421;SHT31;57848;51.938;15.520;2022-12-17T11:57:54;-4.38;87.53
70421;SHT31;57848;51.938;15.520;2022-12-17T12:01:01;-4.44;87.68
70421;SHT31;57848;51.938;15.520;2022-12-17T12:04:10;-4.38;88.22
70421;SHT31;57848;51.938;15.520;2022-12-17T12:09:59;-4.28;87.72
70421;SHT31;57848;51.938;15.520;2022-12-17T12:16:05;-4.49;87.64
70421;SHT31;57848;51.938;15.520;2022-12-17T12:19:01;-4.33;87.65
70421;SHT31;57848;51.938;15.520;2022-12-17T12:21:55;-4.24;87.37
70421;SHT31;57848;51.938;15.520;2022-12-17T12:33:52;-4.33;87.71
70421;SHT31;57848;51.938;15.520;2022-12-17T12:36:40;-4.15;87.52
70421;SHT31;57848;51.938;15.520;2022-12-17T12:39:31;-4.25;86.94
70421;SHT31;57848;51.938;15.520;2022-12-17T12:42:20;-4.12;86.43
70421;SHT31;57848;51.938;15.520;2022-12-17T12:51:13;-4.08;86.28
70421;SHT31;57848;51.938;15.520;2022-12-17T12:53:59;-4.18;86.90
70421;SHT31;57848;51.938;15.520;2022-12-17T12:56:44;-4.14;86.60
70421;SHT31;57848;51.938;15.520;2022-12-17T12:59:33;-4.09;86.77
70421;SHT31;57848;51.938;15.520;2022-12-17T13:10:33;-4.25;87.40
70421;SHT31;57848;51.938;15.520;2022-12-17T13:13:12;-4.26;87.70
70421;SHT31;57848;51.938;15.520;2022-12-17T13:15:45;-4.28;87.51
70421;SHT31;57848;51.938;15.520;2022-12-17T13:18:33;-4.28;87.72
70421;SHT31;57848;51.938;15.520;2022-12-17T13:21:04;-4.32;87.60
70421;SHT31;57848;51.938;15.520;2022-12-17T13:23:36;-4.25;87.44
70421;SHT31;57848;51.938;15.520;2022-12-17T13:26:19;-4.30;87.95
70421;SHT31;57848;51.938;15.520;2022-12-17T13:29:22;-4.32;87.67
70421;SHT31;57848;51.938;15.520;2022-12-17T13:32:00;-4.25;87.19
70421;SHT31;57848;51.938;15.520;2022-12-17T13:34:43;-4.29;86.97
70421;SHT31;57848;51.938;15.520;2022-12-17T13:42:36;-4.41;87.76
70421;SHT31;57848;51.938;15.520;2022-12-17T13:45:02;-4.50;88.01
70421;SHT31;57848;51.938;15.520;2022-12-17T13:47:30;-4.60;88.32
70421;SHT31;57848;51.938;15.520;2022-12-17T13:49:58;-4.60;88.37
70421;SHT31;57848;51.938;15.520;2022-12-17T13:52:26;-4.53;88.20
70421;SHT31;57848;51.938;15.520;2022-12-17T13:54:53;-4.55;88.11
70421;SHT31;57848;51.938;15.520;2022-12-17T13:57:21;-4.55;88.18
70421;SHT31;57848;51.938;15.520;2022-12-17T13:59:58;-4.45;88.53
70421;SHT31;57848;51.938;15.520;2022-12-17T14:02:28;-4.50;88.34
70421;SHT31;57848;51.938;15.520;2022-12-17T14:04:55;-4.45;88.07
70421;SHT31;57848;51.938;15.520;2022-12-17T14:07:22;-4.60;88.57
70421;SHT31;57848;51.938;15.520;2022-12-17T14:09:48;-4.62;88.87
70421;SHT31;57848;51.938;15.520;2022-12-17T14:12:16;-4.65;88.71
70421;SHT31;57848;51.938;15.520;2022-12-17T14:14:55;-4.56;88.97
70421;SHT31;57848;51.938;15.520;2022-12-17T14:17:24;-4.50;88.73
70421;SHT31;57848;51.938;15.520;2022-12-17T14:19:57;-4.59;88.81
70421;SHT31;57848;51.938;15.520;2022-12-17T14:22:34;-4.58;88.84
70421;SHT31;57848;51.938;15.520;2022-12-17T14:25:02;-4.66;88.68
70421;SHT31;57848;51.938;15.520;2022-12-17T14:27:33;-4.75;88.93
70421;SHT31;57848;51.938;15.520;2022-12-17T14:29:59;-4.70;89.02
70421;SHT31;57848;51.938;15.520;2022-12-17T14:32:31;-4.84;89.42
70421;SHT31;57848;51.938;15.520;2022-12-17T14:34:57;-4.75;89.26
70421;SHT31;57848;51.938;15.520;2022-12-17T14:37:26;-4.80;89.09
70421;SHT31;57848;51.938;15.520;2022-12-17T14:39:57;-4.90;89.33
70421;SHT31;57848;51.938;15.520;2022-12-17T14:42:25;-4.90;89.54
70421;SHT31;57848;51.938;15.520;2022-12-17T14:45:03;-4.90;89.83
70421;SHT31;57848;51.938;15.520;2022-12-17T14:47:32;-4.90;89.78
70421;SHT31;57848;51.938;15.520;2022-12-17T14:55:34;-4.80;89.22
70421;SHT31;57848;51.938;15.520;2022-12-17T15:00:45;-4.86;89.57
70421;SHT31;57848;51.938;15.520;2022-12-17T15:03:20;-4.83;89.48
70421;SHT31;57848;51.938;15.520;2022-12-17T15:05:52;-4.75;89.23
70421;SHT31;57848;51.938;15.520;2022-12-17T15:08:19;-4.77;89.41
70421;SHT31;57848;51.938;15.520;2022-12-17T15:10:45;-4.70;89.07
70421;SHT31;57848;51.938;15.520;2022-12-17T15:13:10;-4.66;89.24
70421;SHT31;57848;51.938;15.520;2022-12-17T15:15:36;-4.80;89.48
70421;SHT31;57848;51.938;15.520;2022-12-17T15:18:01;-4.77;89.36
70421;SHT31;57848;51.938;15.520;2022-12-17T15:20:27;-4.69;89.45
70421;SHT31;57848;51.938;15.520;2022-12-17T15:22:52;-4.73;89.35
70421;SHT31;57848;51.938;15.520;2022-12-17T15:25:18;-4.79;89.66
70421;SHT31;57848;51.938;15.520;2022-12-17T15:27:45;-4.73;89.20
70421;SHT31;57848;51.938;15.520;2022-12-17T15:30:15;-4.73;89.81
70421;SHT31;57848;51.938;15.520;2022-12-17T15:32:41;-4.76;89.94
70421;SHT31;57848;51.938;15.520;2022-12-17T15:35:06;-4.81;89.69
70421;SHT31;57848;51.938;15.520;2022-12-17T15:37:32;-4.90;90.60
70421;SHT31;57848;51.938;15.520;2022-12-17T15:39:57;-4.88;90.85
70421;SHT31;57848;51.938;15.520;2022-12-17T15:42:23;-4.88;90.78
70421;SHT31;57848;51.938;15.520;2022-12-17T15:45:07;-4.84;91.04
70421;SHT31;57848;51.938;15.520;2022-12-17T15:47:33;-4.81;91.18
70421;SHT31;57848;51.938;15.520;2022-12-17T15:50:01;-4.76;91.35
70421;SHT31;57848;51.938;15.520;2022-12-17T15:52:26;-4.75;91.24
70421;SHT31;57848;51.938;15.520;2022-12-17T15:54:52;-4.69;91.06
70421;SHT31;57848;51.938;15.520;2022-12-17T15:57:17;-4.70;91.31
70421;SHT31;57848;51.938;15.520;2022-12-17T15:59:43;-4.65;91.41
70421;SHT31;57848;51.938;15.520;2022-12-17T16:02:09;-4.52;91.19
70421;SHT31;57848;51.938;15.520;2022-12-17T16:04:35;-4.55;90.83
70421;SHT31;57848;51.938;15.520;2022-12-17T16:07:03;-4.67;90.91
70421;SHT31;57848;51.938;15.520;2022-12-17T16:09:29;-4.62;91.08
70421;SHT31;57848;51.938;15.520;2022-12-17T16:11:55;-4.55;91.05
70421;SHT31;57848;51.938;15.520;2022-12-17T16:14:22;-4.52;90.88
70421;SHT31;57848;51.938;15.520;2022-12-17T16:16:48;-4.65;91.25
70421;SHT31;57848;51.938;15.520;2022-12-17T16:19:13;-4.58;91.32
70421;SHT31;57848;51.938;15.520;2022-12-17T16:21:38;-4.49;91.28
70421;SHT31;57848;51.938;15.520;2022-12-17T16:24:04;-4.59;91.30
70421;SHT31;57848;51.938;15.520;2022-12-17T16:26:30;-4.60;91.39
70421;SHT31;57848;51.938;15.520;2022-12-17T16:28:57;-4.52;91.72
70421;SHT31;57848;51.938;15.520;2022-12-17T16:31:22;-4.56;91.84
70421;SHT31;57848;51.938;15.520;2022-12-17T16:33:48;-4.52;91.79
70421;SHT31;57848;51.938;15.520;2022-12-17T16:36:17;-4.45;91.75
70421;SHT31;57848;51.938;15.520;2022-12-17T16:38:44;-4.38;91.66
70421;SHT31;57848;51.938;15.520;2022-12-17T16:41:10;-4.39;91.59
70421;SHT31;57848;51.938;15.520;2022-12-17T16:43:36;-4.41;91.83
70421;SHT31;57848;51.938;15.520;2022-12-17T16:46:02;-4.36;91.97
70421;SHT31;57848;51.938;15.520;2022-12-17T16:48:27;-4.35;91.74
70421;SHT31;57848;51.938;15.520;2022-12-17T16:50:53;-4.32;92.01
70421;SHT31;57848;51.938;15.520;2022-12-17T16:53:18;-4.29;92.01
70421;SHT31;57848;51.938;15.520;2022-12-17T16:55:46;-4.33;92.26
70421;SHT31;57848;51.938;15.520;2022-12-17T16:58:16;-4.29;91.85
70421;SHT31;57848;51.938;15.520;2022-12-17T17:00:42;-4.28;91.81
70421;SHT31;57848;51.938;15.520;2022-12-17T17:03:08;-4.28;91.97
70421;SHT31;57848;51.938;15.520;2022-12-17T17:05:36;-4.21;91.75
70421;SHT31;57848;51.938;15.520;2022-12-17T17:08:02;-4.21;91.84
70421;SHT31;57848;51.938;15.520;2022-12-17T17:10:27;-4.30;91.91
70421;SHT31;57848;51.938;15.520;2022-12-17T17:12:53;-4.21;92.16
70421;SHT31;57848;51.938;15.520;2022-12-17T17:15:19;-4.25;92.22
70421;SHT31;57848;51.938;15.520;2022-12-17T17:17:45;-4.26;92.24
70421;SHT31;57848;51.938;15.520;2022-12-17T17:20:11;-4.17;92.46
70421;SHT31;57848;51.938;15.520;2022-12-17T17:22:36;-4.11;92.23
70421;SHT31;57848;51.938;15.520;2022-12-17T17:25:02;-4.19;92.47
70421;SHT31;57848;51.938;15.520;2022-12-17T17:27:29;-4.07;92.34
70421;SHT31;57848;51.938;15.520;2022-12-17T17:29:54;-4.14;92.39
70421;SHT31;57848;51.938;15.520;2022-12-17T17:32:21;-4.29;92.76
70421;SHT31;57848;51.938;15.520;2022-12-17T17:34:46;-4.19;92.70
70421;SHT31;57848;51.938;15.520;2022-12-17T17:37:12;-4.14;92.21
70421;SHT31;57848;51.938;15.520;2022-12-17T17:39:38;-4.12;92.30
70421;SHT31;57848;51.938;15.520;2022-12-17T17:42:03;-4.15;92.46
70421;SHT31;57848;51.938;15.520;2022-12-17T17:44:29;-4.12;92.38
70421;SHT31;57848;51.938;15.520;2022-12-17T17:46:54;-4.09;92.35